sensor_id;sensor_type;location;lat;lon;timestamp;pressure;altitude;pressure_sealevel;temperature;humidity
47763;BME280;33526;42.690;23.322;2023-05-14T00:02:01;95508.78;;;14.07;56.31
47763;BME280;33526;42.690;23.322;2023-05-14T00:04:26;95442.28;;;13.65;56.36
47763;BME280;33526;42.690;23.322;2023-05-14T00:06:52;95505.66;;;14.05;56.40
47763;BME280;33526;42.690;23.322;2023-05-14T00:09:18;95428.31;;;13.56;56.55
47763;BME280;33526;42.690;23.322;2023-05-14T00:11:43;95438.66;;;13.50;56.71
47763;BME280;33526;42.690;23.322;2023-05-14T00:14:17;95496.91;;;13.88;57.05
47763;BME280;33526;42.690;23.322;2023-05-14T00:16:42;95493.00;;;13.86;57.20
47763;BME280;33526;42.690;23.322;2023-05-14T00:19:08;95475.94;;;13.74;57.24
47763;BME280;33526;42.690;23.322;2023-05-14T00:21:34;95495.53;;;13.84;57.00
47763;BME280;33526;42.690;23.322;2023-05-14T00:24:01;95495.34;;;13.87;56.92
47763;BME280;33526;42.690;23.322;2023-05-14T00:26:28;95458.50;;;13.70;57.07
47763;BME280;33526;42.690;23.322;2023-05-14T00:28:55;95472.09;;;13.87;57.18
47763;BME280;33526;42.690;23.322;2023-05-14T00:31:21;95464.50;;;13.78;56.90
47763;BME280;33526;42.690;23.322;2023-05-14T00:33:46;95463.66;;;13.87;56.94
47763;BME280;33526;42.690;23.322;2023-05-14T00:36:12;95458.81;;;13.87;56.74
47763;BME280;33526;42.690;23.322;2023-05-14T00:38:37;95471.72;;;13.94;56.55
47763;BME280;33526;42.690;23.322;2023-05-14T00:41:03;95451.72;;;13.77;56.64
47763;BME280;33526;42.690;23.322;2023-05-14T00:43:35;95461.81;;;13.84;56.64
47763;BME280;33526;42.690;23.322;2023-05-14T00:46:01;95453.47;;;13.74;56.79
47763;BME280;33526;42.690;23.322;2023-05-14T00:48:28;95466.47;;;13.87;56.46
47763;BME280;33526;42.690;23.322;2023-05-14T00:50:54;95469.94;;;13.82;56.84
47763;BME280;33526;42.690;23.322;2023-05-14T00:53:21;95470.59;;;13.76;56.98
47763;BME280;33526;42.690;23.322;2023-05-14T00:55:48;95461.88;;;13.74;57.01
47763;BME280;33526;42.690;23.322;2023-05-14T00:58:16;95449.06;;;13.58;57.19
47763;BME280;33526;42.690;23.322;2023-05-14T01:00:44;95441.75;;;13.52;57.27
47763;BME280;33526;42.690;23.322;2023-05-14T01:03:10;95448.00;;;13.56;57.54
47763;BME280;33526;42.690;23.322;2023-05-14T01:11:16;95470.69;;;13.67;57.19
47763;BME280;33526;42.690;23.322;2023-05-14T01:14:27;95452.81;;;13.55;57.32
47763;BME280;33526;42.690;23.322;2023-05-14T01:17:01;95449.72;;;13.53;57.15
47763;BME280;33526;42.690;23.322;2023-05-14T01:19:39;95451.47;;;13.51;57.01
47763;BME280;33526;42.690;23.322;2023-05-14T01:22:05;95447.16;;;13.41;57.13
47763;BME280;33526;42.690;23.322;2023-05-14T01:24:32;95448.09;;;13.37;56.49
47763;BME280;33526;42.690;23.322;2023-05-14T01:27:07;95470.84;;;13.39;56.96
47763;BME280;33526;42.690;23.322;2023-05-14T01:29:42;95463.28;;;13.31;56.49
47763;BME280;33526;42.690;23.322;2023-05-14T01:32:09;95477.16;;;13.34;56.70
47763;BME280;33526;42.690;23.322;2023-05-14T01:34:36;95490.53;;;13.39;56.47
47763;BME280;33526;42.690;23.322;2023-05-14T01:37:06;95480.25;;;13.36;56.66
47763;BME280;33526;42.690;23.322;2023-05-14T01:39:34;95456.41;;;13.32;56.90
47763;BME280;33526;42.690;23.322;2023-05-14T01:42:02;95480.31;;;13.51;56.26
47763;BME280;33526;42.690;23.322;2023-05-14T01:44:32;95446.84;;;13.14;56.34
47763;BME280;33526;42.690;23.322;2023-05-14T01:46:57;95414.03;;;12.96;56.13
47763;BME280;33526;42.690;23.322;2023-05-14T01:49:22;95474.47;;;13.40;56.50
47763;BME280;33526;42.690;23.322;2023-05-14T01:51:50;95471.19;;;13.42;56.30
47763;BME280;33526;42.690;23.322;2023-05-14T01:54:15;95468.25;;;13.27;56.59
47763;BME280;33526;42.690;23.322;2023-05-14T01:56:42;95471.84;;;13.36;56.82
47763;BME280;33526;42.690;23.322;2023-05-14T01:59:07;95478.41;;;13.33;56.66
47763;BME280;33526;42.690;23.322;2023-05-14T02:01:34;95466.88;;;13.31;57.40
47763;BME280;33526;42.690;23.322;2023-05-14T02:04:01;95469.34;;;13.29;58.30
47763;BME280;33526;42.690;23.322;2023-05-14T02:06:27;95428.66;;;13.00;58.48
47763;BME280;33526;42.690;23.322;2023-05-14T02:08:53;95466.94;;;13.13;58.95
47763;BME280;33526;42.690;23.322;2023-05-14T02:11:18;95482.47;;;13.23;59.52
47763;BME280;33526;42.690;23.322;2023-05-14T02:13:43;95478.94;;;13.13;59.56
47763;BME280;33526;42.690;23.322;2023-05-14T02:16:09;95482.59;;;13.05;60.04
47763;BME280;33526;42.690;23.322;2023-05-14T02:18:34;95469.84;;;12.94;60.44
47763;BME280;33526;42.690;23.322;2023-05-14T02:21:00;95424.19;;;12.51;60.71
47763;BME280;33526;42.690;23.322;2023-05-14T02:23:26;95453.72;;;12.71;61.00
47763;BME280;33526;42.690;23.322;2023-05-14T02:25:52;95458.41;;;12.74;62.35
47763;BME280;33526;42.690;23.322;2023-05-14T02:28:18;95460.91;;;12.72;62.17
47763;BME280;33526;42.690;23.322;2023-05-14T02:30:43;95457.81;;;12.70;62.44
47763;BME280;33526;42.690;23.322;2023-05-14T02:33:08;95499.50;;;12.86;63.29
47763;BME280;33526;42.690;23.322;2023-05-14T02:35:34;95441.69;;;12.37;64.28
47763;BME280;33526;42.690;23.322;2023-05-14T02:37:59;95444.81;;;12.39;64.21
47763;BME280;33526;42.690;23.322;2023-05-14T02:40:25;95451.81;;;12.43;64.39
47763;BME280;33526;42.690;23.322;2023-05-14T02:42:50;95453.53;;;12.41;65.27
47763;BME280;33526;42.690;23.322;2023-05-14T02:45:15;95429.94;;;12.05;65.07
47763;BME280;33526;42.690;23.322;2023-05-14T02:47:41;95465.41;;;12.27;65.03
47763;BME280;33526;42.690;23.322;2023-05-14T02:50:08;95465.38;;;12.36;65.67
47763;BME280;33526;42.690;23.322;2023-05-14T02:52:33;95484.38;;;12.41;66.22
47763;BME280;33526;42.690;23.322;2023-05-14T02:55:01;95433.19;;;12.13;65.48
47763;BME280;33526;42.690;23.322;2023-05-14T02:57:26;95479.09;;;12.34;65.02
47763;BME280;33526;42.690;23.322;2023-05-14T02:59:51;95490.56;;;12.54;65.41
47763;BME280;33526;42.690;23.322;2023-05-14T03:02:17;95491.50;;;12.51;63.81
47763;BME280;33526;42.690;23.322;2023-05-14T03:04:42;95503.97;;;12.59;63.00
47763;BME280;33526;42.690;23.322;2023-05-14T03:07:08;95471.59;;;12.40;63.70
47763;BME280;33526;42.690;23.322;2023-05-14T03:09:33;95445.81;;;12.17;63.23
47763;BME280;33526;42.690;23.322;2023-05-14T03:11:59;95428.19;;;12.17;63.16
47763;BME280;33526;42.690;23.322;2023-05-14T03:14:24;95464.75;;;12.41;62.06
47763;BME280;33526;42.690;23.322;2023-05-14T03:16:50;95413.72;;;12.18;62.22
47763;BME280;33526;42.690;23.322;2023-05-14T03:19:15;95423.06;;;12.24;62.14
47763;BME280;33526;42.690;23.322;2023-05-14T03:21:41;95486.63;;;12.70;61.70
47763;BME280;33526;42.690;23.322;2023-05-14T03:24:07;95467.19;;;12.57;61.72
47763;BME280;33526;42.690;23.322;2023-05-14T03:26:32;95437.47;;;12.41;61.50
47763;BME280;33526;42.690;23.322;2023-05-14T03:28:59;95443.69;;;12.46;60.88
47763;BME280;33526;42.690;23.322;2023-05-14T03:31:24;95478.81;;;12.74;61.87
47763;BME280;33526;42.690;23.322;2023-05-14T03:33:50;95485.38;;;12.71;62.31
47763;BME280;33526;42.690;23.322;2023-05-14T03:36:16;95377.34;;;11.91;63.40
47763;BME280;33526;42.690;23.322;2023-05-14T03:38:41;95445.44;;;12.34;63.36
47763;BME280;33526;42.690;23.322;2023-05-14T03:41:07;95432.38;;;12.31;67.40
47763;BME280;33526;42.690;23.322;2023-05-14T03:43:32;95474.97;;;12.62;66.76
47763;BME280;33526;42.690;23.322;2023-05-14T03:45:58;95423.69;;;12.19;66.07
47763;BME280;33526;42.690;23.322;2023-05-14T03:48:25;95440.81;;;12.21;65.90
47763;BME280;33526;42.690;23.322;2023-05-14T03:50:51;95519.81;;;12.72;66.00
47763;BME280;33526;42.690;23.322;2023-05-14T03:53:16;95509.28;;;12.48;65.53
47763;BME280;33526;42.690;23.322;2023-05-14T03:55:42;95429.63;;;11.94;65.92
47763;BME280;33526;42.690;23.322;2023-05-14T03:58:07;95493.25;;;12.39;67.33
47763;BME280;33526;42.690;23.322;2023-05-14T04:00:40;95468.81;;;12.31;65.63
47763;BME280;33526;42.690;23.322;2023-05-14T04:03:06;95472.72;;;12.24;65.26
47763;BME280;33526;42.690;23.322;2023-05-14T04:05:32;95429.47;;;11.88;65.83
47763;BME280;33526;42.690;23.322;2023-05-14T04:07:58;95504.63;;;12.45;65.70
47763;BME280;33526;42.690;23.322;2023-05-14T04:10:23;95463.22;;;12.21;65.32
47763;BME280;33526;42.690;23.322;2023-05-14T04:12:48;95462.00;;;12.04;64.09
47763;BME280;33526;42.690;23.322;2023-05-14T04:15:14;95455.50;;;11.98;65.45
47763;BME280;33526;42.690;23.322;2023-05-14T04:17:40;95457.50;;;12.07;65.16
47763;BME280;33526;42.690;23.322;2023-05-14T04:20:06;95422.63;;;11.98;64.32
47763;BME280;33526;42.690;23.322;2023-05-14T04:22:31;95526.69;;;12.61;63.99
47763;BME280;33526;42.690;23.322;2023-05-14T04:24:57;95502.44;;;12.40;63.92
47763;BME280;33526;42.690;23.322;2023-05-14T04:27:22;95478.16;;;12.28;63.81
47763;BME280;33526;42.690;23.322;2023-05-14T04:29:49;95542.13;;;12.66;64.81
47763;BME280;33526;42.690;23.322;2023-05-14T04:32:15;95522.03;;;12.58;64.57
47763;BME280;33526;42.690;23.322;2023-05-14T04:34:41;95526.56;;;12.56;62.90
47763;BME280;33526;42.690;23.322;2023-05-14T04:37:07;95516.91;;;12.57;62.56
47763;BME280;33526;42.690;23.322;2023-05-14T04:39:33;95503.69;;;12.48;62.03
47763;BME280;33526;42.690;23.322;2023-05-14T04:41:58;95485.16;;;12.32;62.10
47763;BME280;33526;42.690;23.322;2023-05-14T04:44:24;95511.47;;;12.35;62.37
47763;BME280;33526;42.690;23.322;2023-05-14T04:46:50;95531.59;;;12.42;62.81
47763;BME280;33526;42.690;23.322;2023-05-14T04:49:15;95478.50;;;12.02;62.96
47763;BME280;33526;42.690;23.322;2023-05-14T04:51:41;95548.56;;;12.48;63.63
47763;BME280;33526;42.690;23.322;2023-05-14T04:54:06;95570.03;;;12.60;64.04
47763;BME280;33526;42.690;23.322;2023-05-14T04:56:32;95554.19;;;12.39;64.89
47763;BME280;33526;42.690;23.322;2023-05-14T04:58:57;95528.31;;;12.35;66.24
47763;BME280;33526;42.690;23.322;2023-05-14T05:01:22;95515.88;;;12.17;67.29
47763;BME280;33526;42.690;23.322;2023-05-14T05:03:48;95593.72;;;12.59;66.67
47763;BME280;33526;42.690;23.322;2023-05-14T05:06:13;95565.53;;;12.26;67.67
47763;BME280;33526;42.690;23.322;2023-05-14T05:08:39;95588.13;;;12.41;68.21
47763;BME280;33526;42.690;23.322;2023-05-14T05:11:07;95553.56;;;12.07;69.01
47763;BME280;33526;42.690;23.322;2023-05-14T05:13:33;95604.31;;;12.18;68.75
47763;BME280;33526;42.690;23.322;2023-05-14T05:15:58;95552.25;;;11.80;72.35
47763;BME280;33526;42.690;23.322;2023-05-14T05:18:24;95563.97;;;11.97;71.34
47763;BME280;33526;42.690;23.322;2023-05-14T05:20:50;95546.34;;;11.78;71.23
47763;BME280;33526;42.690;23.322;2023-05-14T05:23:16;95571.28;;;11.85;72.65
47763;BME280;33526;42.690;23.322;2023-05-14T05:25:41;95559.97;;;11.48;73.09
47763;BME280;33526;42.690;23.322;2023-05-14T05:28:06;95539.41;;;11.24;74.08
47763;BME280;33526;42.690;23.322;2023-05-14T05:30:32;95556.84;;;11.28;75.54
47763;BME280;33526;42.690;23.322;2023-05-14T05:32:58;95593.59;;;11.48;77.14
47763;BME280;33526;42.690;23.322;2023-05-14T05:35:23;95565.22;;;11.28;78.58
47763;BME280;33526;42.690;23.322;2023-05-14T05:37:49;95574.38;;;11.19;78.65
47763;BME280;33526;42.690;23.322;2023-05-14T05:40:15;95621.72;;;11.45;80.16
47763;BME280;33526;42.690;23.322;2023-05-14T05:42:41;95618.19;;;11.13;81.87
47763;BME280;33526;42.690;23.322;2023-05-14T05:45:08;95637.34;;;11.15;83.06
47763;BME280;33526;42.690;23.322;2023-05-14T05:47:33;95590.19;;;10.82;84.72
47763;BME280;33526;42.690;23.322;2023-05-14T05:49:59;95535.56;;;10.37;85.94
47763;BME280;33526;42.690;23.322;2023-05-14T05:52:24;95586.00;;;10.55;87.02
47763;BME280;33526;42.690;23.322;2023-05-14T05:54:50;95622.69;;;10.79;87.91
47763;BME280;33526;42.690;23.322;2023-05-14T05:57:15;95617.44;;;10.59;88.15
47763;BME280;33526;42.690;23.322;2023-05-14T05:59:41;95565.59;;;10.23;89.38
47763;BME280;33526;42.690;23.322;2023-05-14T06:02:07;95618.38;;;10.65;90.54
47763;BME280;33526;42.690;23.322;2023-05-14T06:04:32;95570.28;;;10.26;90.39
47763;BME280;33526;42.690;23.322;2023-05-14T06:06:58;95606.38;;;10.33;90.30
47763;BME280;33526;42.690;23.322;2023-05-14T06:09:23;95619.16;;;10.44;91.43
47763;BME280;33526;42.690;23.322;2023-05-14T06:11:51;95638.41;;;10.42;92.73
47763;BME280;33526;42.690;23.322;2023-05-14T06:14:16;95583.19;;;10.11;93.31
47763;BME280;33526;42.690;23.322;2023-05-14T06:16:43;95574.47;;;10.09;92.95
47763;BME280;33526;42.690;23.322;2023-05-14T06:19:08;95580.38;;;10.11;93.15
47763;BME280;33526;42.690;23.322;2023-05-14T06:21:34;95622.63;;;10.48;92.52
47763;BME280;33526;42.690;23.322;2023-05-14T06:23:59;95608.19;;;10.49;92.18
47763;BME280;33526;42.690;23.322;2023-05-14T06:26:25;95625.56;;;10.66;92.11
47763;BME280;33526;42.690;23.322;2023-05-14T06:28:50;95592.53;;;10.52;91.37
47763;BME280;33526;42.690;23.322;2023-05-14T06:31:17;95632.38;;;10.65;90.04
47763;BME280;33526;42.690;23.322;2023-05-14T06:33:42;95645.19;;;10.76;91.05
47763;BME280;33526;42.690;23.322;2023-05-14T06:36:08;95631.34;;;10.72;91.61
47763;BME280;33526;42.690;23.322;2023-05-14T06:38:33;95595.97;;;10.56;93.29
47763;BME280;33526;42.690;23.322;2023-05-14T06:40:59;95644.38;;;10.97;94.60
47763;BME280;33526;42.690;23.322;2023-05-14T06:43:26;95609.59;;;10.76;92.98
47763;BME280;33526;42.690;23.322;2023-05-14T06:45:51;95596.16;;;10.62;92.72
47763;BME280;33526;42.690;23.322;2023-05-14T06:48:17;95624.97;;;10.71;94.05
47763;BME280;33526;42.690;23.322;2023-05-14T06:50:44;95567.13;;;10.24;96.37
47763;BME280;33526;42.690;23.322;2023-05-14T06:53:11;95605.50;;;10.46;97.31
47763;BME280;33526;42.690;23.322;2023-05-14T06:55:36;95621.91;;;10.57;96.73
47763;BME280;33526;42.690;23.322;2023-05-14T06:58:02;95564.28;;;10.15;97.14
47763;BME280;33526;42.690;23.322;2023-05-14T07:00:29;95564.00;;;10.22;98.40
47763;BME280;33526;42.690;23.322;2023-05-14T07:02:57;95567.56;;;10.36;97.84
47763;BME280;33526;42.690;23.322;2023-05-14T07:05:23;95523.75;;;10.10;97.56
47763;BME280;33526;42.690;23.322;2023-05-14T07:07:49;95605.66;;;10.64;96.06
47763;BME280;33526;42.690;23.322;2023-05-14T07:10:16;95561.97;;;10.36;95.72
47763;BME280;33526;42.690;23.322;2023-05-14T07:12:43;95577.03;;;10.60;95.60
47763;BME280;33526;42.690;23.322;2023-05-14T07:15:09;95589.88;;;10.80;97.81
47763;BME280;33526;42.690;23.322;2023-05-14T07:17:36;95568.78;;;10.57;96.61
47763;BME280;33526;42.690;23.322;2023-05-14T07:20:02;95623.72;;;10.73;94.93
47763;BME280;33526;42.690;23.322;2023-05-14T07:22:27;95563.66;;;10.33;96.35
47763;BME280;33526;42.690;23.322;2023-05-14T07:24:53;95666.50;;;11.04;96.15
47763;BME280;33526;42.690;23.322;2023-05-14T07:27:18;95650.88;;;10.94;96.56
47763;BME280;33526;42.690;23.322;2023-05-14T07:29:44;95551.69;;;10.32;97.27
47763;BME280;33526;42.690;23.322;2023-05-14T07:32:09;95603.31;;;10.63;98.43
47763;BME280;33526;42.690;23.322;2023-05-14T07:34:35;95632.03;;;10.63;97.87
47763;BME280;33526;42.690;23.322;2023-05-14T07:37:01;95622.56;;;10.61;98.46
47763;BME280;33526;42.690;23.322;2023-05-14T07:39:26;95634.06;;;10.63;98.51
47763;BME280;33526;42.690;23.322;2023-05-14T07:41:52;95617.69;;;10.52;98.38
47763;BME280;33526;42.690;23.322;2023-05-14T07:44:19;95572.13;;;10.29;98.06
47763;BME280;33526;42.690;23.322;2023-05-14T07:46:45;95587.84;;;10.49;97.98
47763;BME280;33526;42.690;23.322;2023-05-14T07:49:10;95646.31;;;11.09;99.02
47763;BME280;33526;42.690;23.322;2023-05-14T07:51:36;95594.34;;;10.68;96.97
47763;BME280;33526;42.690;23.322;2023-05-14T07:54:01;95653.28;;;11.05;96.03
47763;BME280;33526;42.690;23.322;2023-05-14T07:56:27;95660.00;;;11.07;95.69
47763;BME280;33526;42.690;23.322;2023-05-14T07:58:52;95651.47;;;10.89;94.85
47763;BME280;33526;42.690;23.322;2023-05-14T08:01:18;95636.59;;;10.70;96.26
47763;BME280;33526;42.690;23.322;2023-05-14T08:03:44;95646.03;;;10.63;97.47
47763;BME280;33526;42.690;23.322;2023-05-14T08:06:10;95628.13;;;10.39;97.95
47763;BME280;33526;42.690;23.322;2023-05-14T08:08:35;95619.56;;;10.33;98.66
47763;BME280;33526;42.690;23.322;2023-05-14T08:11:02;95664.91;;;10.72;98.86
47763;BME280;33526;42.690;23.322;2023-05-14T08:13:28;95668.06;;;10.61;96.94
47763;BME280;33526;42.690;23.322;2023-05-14T08:15:54;95634.59;;;10.70;98.79
47763;BME280;33526;42.690;23.322;2023-05-14T08:18:20;95645.88;;;10.89;97.24
47763;BME280;33526;42.690;23.322;2023-05-14T08:20:45;95628.91;;;10.83;96.34
47763;BME280;33526;42.690;23.322;2023-05-14T08:23:11;95620.34;;;10.78;97.73
47763;BME280;33526;42.690;23.322;2023-05-14T08:25:36;95584.19;;;10.61;98.17
47763;BME280;33526;42.690;23.322;2023-05-14T08:28:02;95627.88;;;10.90;97.33
47763;BME280;33526;42.690;23.322;2023-05-14T08:30:27;95613.94;;;10.99;97.08
47763;BME280;33526;42.690;23.322;2023-05-14T08:32:53;95644.41;;;11.38;96.62
47763;BME280;33526;42.690;23.322;2023-05-14T08:35:18;95639.22;;;11.27;96.12
47763;BME280;33526;42.690;23.322;2023-05-14T08:37:44;95598.63;;;10.91;93.32
47763;BME280;33526;42.690;23.322;2023-05-14T08:40:11;95620.47;;;11.05;94.14
47763;BME280;33526;42.690;23.322;2023-05-14T08:42:39;95614.41;;;11.07;94.36
47763;BME280;33526;42.690;23.322;2023-05-14T08:45:15;95623.66;;;11.17;94.97
47763;BME280;33526;42.690;23.322;2023-05-14T08:47:48;95611.63;;;11.38;94.70
47763;BME280;33526;42.690;23.322;2023-05-14T08:50:17;95578.34;;;11.09;93.25
47763;BME280;33526;42.690;23.322;2023-05-14T08:52:46;95618.78;;;11.08;93.68
47763;BME280;33526;42.690;23.322;2023-05-14T08:55:12;95626.50;;;11.26;93.94
47763;BME280;33526;42.690;23.322;2023-05-14T08:57:38;95596.31;;;11.21;95.02
47763;BME280;33526;42.690;23.322;2023-05-14T09:00:05;95617.81;;;11.33;94.57
47763;BME280;33526;42.690;23.322;2023-05-14T09:02:39;95599.34;;;11.45;93.59
47763;BME280;33526;42.690;23.322;2023-05-14T09:05:05;95620.38;;;11.59;93.23
47763;BME280;33526;42.690;23.322;2023-05-14T09:07:34;95627.31;;;11.85;93.40
47763;BME280;33526;42.690;23.322;2023-05-14T09:10:00;95627.34;;;12.13;91.60
47763;BME280;33526;42.690;23.322;2023-05-14T09:12:26;95623.94;;;12.00;88.97
47763;BME280;33526;42.690;23.322;2023-05-14T09:14:51;95605.25;;;11.97;90.44
47763;BME280;33526;42.690;23.322;2023-05-14T09:17:18;95585.75;;;11.84;89.04
47763;BME280;33526;42.690;23.322;2023-05-14T09:19:45;95611.81;;;12.03;90.29
47763;BME280;33526;42.690;23.322;2023-05-14T09:22:21;95610.19;;;11.83;88.90
47763;BME280;33526;42.690;23.322;2023-05-14T09:25:01;95614.09;;;11.95;90.12
47763;BME280;33526;42.690;23.322;2023-05-14T09:27:29;95579.97;;;11.88;92.14
47763;BME280;33526;42.690;23.322;2023-05-14T09:30:03;95594.03;;;12.06;91.03
47763;BME280;33526;42.690;23.322;2023-05-14T09:32:35;95585.88;;;11.80;89.14
47763;BME280;33526;42.690;23.322;2023-05-14T09:35:08;95546.03;;;11.58;89.73
47763;BME280;33526;42.690;23.322;2023-05-14T09:37:36;95605.84;;;11.92;91.59
47763;BME280;33526;42.690;23.322;2023-05-14T09:40:08;95571.84;;;11.62;89.32
47763;BME280;33526;42.690;23.322;2023-05-14T09:42:34;95572.59;;;11.44;88.49
47763;BME280;33526;42.690;23.322;2023-05-14T09:44:59;95563.72;;;11.36;89.31
47763;BME280;33526;42.690;23.322;2023-05-14T09:47:25;95588.63;;;11.53;89.95
47763;BME280;33526;42.690;23.322;2023-05-14T09:49:51;95580.50;;;11.36;89.47
47763;BME280;33526;42.690;23.322;2023-05-14T09:52:19;95594.25;;;11.53;91.52
47763;BME280;33526;42.690;23.322;2023-05-14T09:54:45;95544.34;;;11.20;90.41
47763;BME280;33526;42.690;23.322;2023-05-14T09:57:11;95583.97;;;11.50;91.52
47763;BME280;33526;42.690;23.322;2023-05-14T09:59:36;95573.09;;;11.61;92.87
47763;BME280;33526;42.690;23.322;2023-05-14T10:02:02;95565.34;;;11.65;91.74
47763;BME280;33526;42.690;23.322;2023-05-14T10:04:31;95548.78;;;11.39;89.34
47763;BME280;33526;42.690;23.322;2023-05-14T10:06:58;95569.22;;;11.67;90.11
47763;BME280;33526;42.690;23.322;2023-05-14T10:09:26;95543.44;;;11.23;90.83
47763;BME280;33526;42.690;23.322;2023-05-14T10:11:55;95550.59;;;11.24;91.47
47763;BME280;33526;42.690;23.322;2023-05-14T10:14:32;95567.75;;;11.35;92.18
47763;BME280;33526;42.690;23.322;2023-05-14T10:16:59;95554.19;;;11.34;92.41
47763;BME280;33526;42.690;23.322;2023-05-14T10:19:26;95527.84;;;11.13;92.86
47763;BME280;33526;42.690;23.322;2023-05-14T10:21:55;95513.22;;;11.08;93.40
47763;BME280;33526;42.690;23.322;2023-05-14T10:24:21;95516.66;;;11.13;95.08
47763;BME280;33526;42.690;23.322;2023-05-14T10:26:47;95535.22;;;11.28;95.24
47763;BME280;33526;42.690;23.322;2023-05-14T10:29:13;95531.28;;;11.07;94.51
47763;BME280;33526;42.690;23.322;2023-05-14T10:31:52;95539.88;;;11.22;94.31
47763;BME280;33526;42.690;23.322;2023-05-14T10:34:40;95545.00;;;10.83;94.68
47763;BME280;33526;42.690;23.322;2023-05-14T10:37:14;95540.88;;;10.97;96.45
47763;BME280;33526;42.690;23.322;2023-05-14T10:42:32;95548.56;;;11.15;97.35
47763;BME280;33526;42.690;23.322;2023-05-14T10:45:05;95525.63;;;10.98;96.59
47763;BME280;33526;42.690;23.322;2023-05-14T10:47:34;95515.47;;;10.82;95.52
47763;BME280;33526;42.690;23.322;2023-05-14T10:50:02;95553.69;;;10.85;96.11
47763;BME280;33526;42.690;23.322;2023-05-14T10:52:29;95560.09;;;10.86;97.13
47763;BME280;33526;42.690;23.322;2023-05-14T10:54:59;95544.75;;;11.00;97.33
47763;BME280;33526;42.690;23.322;2023-05-14T10:57:29;95560.19;;;11.14;96.60
47763;BME280;33526;42.690;23.322;2023-05-14T10:59:57;95545.63;;;11.28;95.58
47763;BME280;33526;42.690;23.322;2023-05-14T11:02:25;95507.31;;;11.06;95.01
47763;BME280;33526;42.690;23.322;2023-05-14T11:07:23;95542.53;;;11.26;95.72
47763;BME280;33526;42.690;23.322;2023-05-14T11:09:49;95522.03;;;10.88;95.40
47763;BME280;33526;42.690;23.322;2023-05-14T11:12:16;95518.44;;;10.88;96.19
47763;BME280;33526;42.690;23.322;2023-05-14T11:14:42;95513.00;;;10.84;95.67
47763;BME280;33526;42.690;23.322;2023-05-14T11:17:07;95517.94;;;10.80;95.39
47763;BME280;33526;42.690;23.322;2023-05-14T11:19:33;95531.47;;;10.82;94.75
47763;BME280;33526;42.690;23.322;2023-05-14T11:21:59;95531.41;;;11.04;96.08
47763;BME280;33526;42.690;23.322;2023-05-14T11:24:25;95475.88;;;10.93;96.33
47763;BME280;33526;42.690;23.322;2023-05-14T11:26:51;95539.19;;;11.68;95.81
47763;BME280;33526;42.690;23.322;2023-05-14T11:29:17;95521.91;;;11.79;94.87
47763;BME280;33526;42.690;23.322;2023-05-14T11:31:43;95510.56;;;11.82;93.57
47763;BME280;33526;42.690;23.322;2023-05-14T11:34:08;95518.22;;;11.91;92.87
47763;BME280;33526;42.690;23.322;2023-05-14T11:36:35;95527.22;;;12.04;93.52
47763;BME280;33526;42.690;23.322;2023-05-14T11:39:01;95518.81;;;11.86;89.42
47763;BME280;33526;42.690;23.322;2023-05-14T11:41:26;95530.19;;;11.92;89.99
47763;BME280;33526;42.690;23.322;2023-05-14T11:43:52;95542.97;;;11.93;89.28
47763;BME280;33526;42.690;23.322;2023-05-14T11:46:18;95531.75;;;12.11;91.17
47763;BME280;33526;42.690;23.322;2023-05-14T11:48:43;95503.41;;;12.09;89.97
47763;BME280;33526;42.690;23.322;2023-05-14T11:51:09;95510.88;;;12.31;90.68
47763;BME280;33526;42.690;23.322;2023-05-14T11:53:34;95528.59;;;12.55;91.13
47763;BME280;33526;42.690;23.322;2023-05-14T11:56:01;95530.44;;;12.58;85.95
47763;BME280;33526;42.690;23.322;2023-05-14T11:58:31;95502.09;;;12.47;84.64
47763;BME280;33526;42.690;23.322;2023-05-14T12:00:56;95495.16;;;12.76;85.57
47763;BME280;33526;42.690;23.322;2023-05-14T12:03:21;95488.34;;;12.68;84.27
47763;BME280;33526;42.690;23.322;2023-05-14T12:05:56;95512.03;;;13.09;83.54
47763;BME280;33526;42.690;23.322;2023-05-14T12:08:26;95515.66;;;13.00;82.56
47763;BME280;33526;42.690;23.322;2023-05-14T12:10:53;95509.59;;;13.26;85.14
47763;BME280;33526;42.690;23.322;2023-05-14T12:13:18;95490.41;;;13.34;82.96
47763;BME280;33526;42.690;23.322;2023-05-14T12:15:53;95487.13;;;13.35;80.27
47763;BME280;33526;42.690;23.322;2023-05-14T12:18:18;95480.75;;;13.26;80.48
47763;BME280;33526;42.690;23.322;2023-05-14T12:20:48;95482.41;;;13.42;81.85
47763;BME280;33526;42.690;23.322;2023-05-14T12:23:14;95467.88;;;13.43;81.91
47763;BME280;33526;42.690;23.322;2023-05-14T12:25:49;95458.16;;;13.68;82.07
47763;BME280;33526;42.690;23.322;2023-05-14T12:28:15;95468.81;;;13.88;80.13
47763;BME280;33526;42.690;23.322;2023-05-14T12:30:40;95465.69;;;13.86;78.94
47763;BME280;33526;42.690;23.322;2023-05-14T12:33:06;95461.81;;;13.84;79.31
47763;BME280;33526;42.690;23.322;2023-05-14T12:35:31;95435.94;;;13.55;79.20
47763;BME280;33526;42.690;23.322;2023-05-14T12:37:57;95449.16;;;13.64;77.68
47763;BME280;33526;42.690;23.322;2023-05-14T12:40:22;95444.81;;;13.63;78.91
47763;BME280;33526;42.690;23.322;2023-05-14T12:42:47;95402.56;;;13.33;80.25
47763;BME280;33526;42.690;23.322;2023-05-14T12:45:13;95436.69;;;13.41;80.03
47763;BME280;33526;42.690;23.322;2023-05-14T12:47:38;95421.31;;;13.27;81.19
47763;BME280;33526;42.690;23.322;2023-05-14T12:50:04;95431.91;;;13.32;82.43
47763;BME280;33526;42.690;23.322;2023-05-14T12:52:30;95423.09;;;13.15;81.68
47763;BME280;33526;42.690;23.322;2023-05-14T12:54:55;95448.78;;;13.23;82.33
47763;BME280;33526;42.690;23.322;2023-05-14T12:57:21;95437.44;;;12.93;79.69
47763;BME280;33526;42.690;23.322;2023-05-14T12:59:46;95448.22;;;12.86;80.40